sensor_id;sensor_type;location;lat;lon;timestamp;P1;durP1;ratioP1;P2;durP2;ratioP2
16436;SDS011;8328;52.206;21.006;2022-09-13T00:01:42;13.40;;;10.50;;
16436;SDS011;8328;52.206;21.006;2022-09-13T00:04:08;11.67;;;10.00;;
16436;SDS011;8328;52.206;21.006;2022-09-13T00:06:34;13.17;;;11.03;;
16436;SDS011;8328;52.206;21.006;2022-09-13T00:09:00;12.20;;;10.33;;
16436;SDS011;8328;52.206;21.006;2022-09-13T00:11:26;11.13;;;9.53;;
16436;SDS011;8328;52.206;21.006;2022-09-13T00:13:54;15.00;;;11.00;;
16436;SDS011;8328;52.206;21.006;2022-09-13T00:16:22;13.80;;;10.67;;
16436;SDS011;8328;52.206;21.006;2022-09-13T00:18:51;12.10;;;10.57;;
16436;SDS011;8328;52.206;21.006;2022-09-13T00:21:18;12.30;;;10.53;;
16436;SDS011;8328;52.206;21.006;2022-09-13T00:23:46;11.80;;;10.57;;
16436;SDS011;8328;52.206;21.006;2022-09-13T00:26:15;14.10;;;10.57;;
16436;SDS011;8328;52.206;21.006;2022-09-13T00:28:43;12.20;;;10.33;;
16436;SDS011;8328;52.206;21.006;2022-09-13T00:31:09;13.20;;;10.90;;
16436;SDS011;8328;52.206;21.006;2022-09-13T00:33:36;12.73;;;10.70;;
16436;SDS011;8328;52.206;21.006;2022-09-13T00:36:03;11.90;;;10.50;;
16436;SDS011;8328;52.206;21.006;2022-09-13T00:38:30;13.73;;;10.93;;
16436;SDS011;8328;52.206;21.006;2022-09-13T00:40:56;13.97;;;10.63;;
16436;SDS011;8328;52.206;21.006;2022-09-13T00:43:39;14.20;;;11.33;;
16436;SDS011;8328;52.206;21.006;2022-09-13T00:46:08;13.43;;;10.20;;
16436;SDS011;8328;52.206;21.006;2022-09-13T00:48:35;13.33;;;10.83;;
16436;SDS011;8328;52.206;21.006;2022-09-13T00:51:01;13.73;;;11.17;;
16436;SDS011;8328;52.206;21.006;2022-09-13T00:53:31;13.73;;;12.10;;
16436;SDS011;8328;52.206;21.006;2022-09-13T00:56:05;14.40;;;11.17;;
16436;SDS011;8328;52.206;21.006;2022-09-13T00:58:46;14.70;;;12.07;;
16436;SDS011;8328;52.206;21.006;2022-09-13T01:01:16;12.53;;;11.20;;
16436;SDS011;8328;52.206;21.006;2022-09-13T01:03:44;15.70;;;12.07;;
16436;SDS011;8328;52.206;21.006;2022-09-13T01:06:14;14.67;;;12.47;;
16436;SDS011;8328;52.206;21.006;2022-09-13T01:08:44;14.10;;;12.40;;
16436;SDS011;8328;52.206;21.006;2022-09-13T01:11:25;14.50;;;12.23;;
16436;SDS011;8328;52.206;21.006;2022-09-13T01:14:02;15.00;;;12.00;;
16436;SDS011;8328;52.206;21.006;2022-09-13T01:16:29;16.13;;;12.73;;
16436;SDS011;8328;52.206;21.006;2022-09-13T01:18:55;14.73;;;12.47;;
16436;SDS011;8328;52.206;21.006;2022-09-13T01:44:06;16.93;;;13.70;;
16436;SDS011;8328;52.206;21.006;2022-09-13T01:56:50;18.03;;;14.37;;
16436;SDS011;8328;52.206;21.006;2022-09-13T02:00:11;18.90;;;14.33;;
16436;SDS011;8328;52.206;21.006;2022-09-13T02:02:33;18.83;;;14.07;;
16436;SDS011;8328;52.206;21.006;2022-09-13T02:05:31;17.13;;;14.00;;
16436;SDS011;8328;52.206;21.006;2022-09-13T02:08:04;19.20;;;14.97;;
16436;SDS011;8328;52.206;21.006;2022-09-13T02:10:40;17.03;;;13.47;;
16436;SDS011;8328;52.206;21.006;2022-09-13T02:13:11;16.63;;;14.87;;
16436;SDS011;8328;52.206;21.006;2022-09-13T02:15:45;21.20;;;14.30;;
16436;SDS011;8328;52.206;21.006;2022-09-13T02:18:18;18.27;;;14.67;;
16436;SDS011;8328;52.206;21.006;2022-09-13T02:20:49;20.20;;;15.27;;
16436;SDS011;8328;52.206;21.006;2022-09-13T02:23:23;19.33;;;14.67;;
16436;SDS011;8328;52.206;21.006;2022-09-13T02:25:58;18.47;;;13.90;;
16436;SDS011;8328;52.206;21.006;2022-09-13T02:28:35;17.93;;;14.50;;
16436;SDS011;8328;52.206;21.006;2022-09-13T02:31:06;17.60;;;14.83;;
16436;SDS011;8328;52.206;21.006;2022-09-13T02:33:36;17.13;;;14.93;;
16436;SDS011;8328;52.206;21.006;2022-09-13T02:36:09;18.50;;;14.60;;
16436;SDS011;8328;52.206;21.006;2022-09-13T02:38:55;18.23;;;14.47;;
16436;SDS011;8328;52.206;21.006;2022-09-13T02:44:15;16.80;;;14.00;;
16436;SDS011;8328;52.206;21.006;2022-09-13T02:49:47;17.43;;;14.27;;
16436;SDS011;8328;52.206;21.006;2022-09-13T03:01:07;18.40;;;14.67;;
16436;SDS011;8328;52.206;21.006;2022-09-13T03:03:33;18.83;;;14.37;;
16436;SDS011;8328;52.206;21.006;2022-09-13T03:05:59;18.47;;;14.63;;
16436;SDS011;8328;52.206;21.006;2022-09-13T03:08:26;17.77;;;14.70;;
16436;SDS011;8328;52.206;21.006;2022-09-13T03:30:30;21.80;;;16.67;;
16436;SDS011;8328;52.206;21.006;2022-09-13T03:41:41;22.10;;;16.80;;
16436;SDS011;8328;52.206;21.006;2022-09-13T03:44:11;18.30;;;15.73;;
16436;SDS011;8328;52.206;21.006;2022-09-13T03:46:41;18.17;;;16.23;;
16436;SDS011;8328;52.206;21.006;2022-09-13T03:49:10;20.03;;;16.27;;
16436;SDS011;8328;52.206;21.006;2022-09-13T03:51:42;17.37;;;15.13;;
16436;SDS011;8328;52.206;21.006;2022-09-13T03:54:44;18.20;;;15.33;;
16436;SDS011;8328;52.206;21.006;2022-09-13T03:57:10;18.67;;;15.60;;
16436;SDS011;8328;52.206;21.006;2022-09-13T03:59:45;18.40;;;14.97;;
16436;SDS011;8328;52.206;21.006;2022-09-13T04:02:13;17.73;;;15.03;;
16436;SDS011;8328;52.206;21.006;2022-09-13T04:04:40;19.70;;;14.50;;
16436;SDS011;8328;52.206;21.006;2022-09-13T04:07:07;19.90;;;15.13;;
16436;SDS011;8328;52.206;21.006;2022-09-13T04:09:34;19.63;;;15.10;;
16436;SDS011;8328;52.206;21.006;2022-09-13T04:12:00;17.83;;;14.17;;
16436;SDS011;8328;52.206;21.006;2022-09-13T04:14:26;19.13;;;14.63;;
16436;SDS011;8328;52.206;21.006;2022-09-13T04:16:55;15.90;;;14.07;;
16436;SDS011;8328;52.206;21.006;2022-09-13T04:19:23;16.00;;;13.70;;
16436;SDS011;8328;52.206;21.006;2022-09-13T04:21:50;16.37;;;13.10;;
16436;SDS011;8328;52.206;21.006;2022-09-13T04:24:17;15.67;;;13.97;;
16436;SDS011;8328;52.206;21.006;2022-09-13T04:26:44;16.97;;;13.73;;
16436;SDS011;8328;52.206;21.006;2022-09-13T04:29:14;19.90;;;14.07;;
16436;SDS011;8328;52.206;21.006;2022-09-13T04:31:39;16.10;;;13.90;;
16436;SDS011;8328;52.206;21.006;2022-09-13T04:34:05;17.87;;;14.23;;
16436;SDS011;8328;52.206;21.006;2022-09-13T04:36:32;15.20;;;12.73;;
16436;SDS011;8328;52.206;21.006;2022-09-13T04:38:57;18.43;;;14.23;;
16436;SDS011;8328;52.206;21.006;2022-09-13T04:41:27;15.20;;;13.40;;
16436;SDS011;8328;52.206;21.006;2022-09-13T04:43:53;14.97;;;12.87;;
16436;SDS011;8328;52.206;21.006;2022-09-13T04:46:19;16.43;;;14.17;;
16436;SDS011;8328;52.206;21.006;2022-09-13T04:48:50;18.57;;;15.30;;
16436;SDS011;8328;52.206;21.006;2022-09-13T04:51:17;16.23;;;13.60;;
16436;SDS011;8328;52.206;21.006;2022-09-13T04:53:44;14.57;;;13.07;;
16436;SDS011;8328;52.206;21.006;2022-09-13T04:56:10;14.27;;;12.77;;
16436;SDS011;8328;52.206;21.006;2022-09-13T04:58:39;17.00;;;13.30;;
16436;SDS011;8328;52.206;21.006;2022-09-13T05:01:06;14.90;;;12.50;;
16436;SDS011;8328;52.206;21.006;2022-09-13T05:03:34;16.33;;;12.50;;
16436;SDS011;8328;52.206;21.006;2022-09-13T05:06:04;15.63;;;12.23;;
16436;SDS011;8328;52.206;21.006;2022-09-13T05:08:35;18.60;;;13.50;;
16436;SDS011;8328;52.206;21.006;2022-09-13T05:11:02;17.97;;;12.47;;
16436;SDS011;8328;52.206;21.006;2022-09-13T05:13:31;16.27;;;13.07;;
16436;SDS011;8328;52.206;21.006;2022-09-13T05:15:58;14.63;;;12.20;;
16436;SDS011;8328;52.206;21.006;2022-09-13T05:18:26;17.80;;;13.33;;
16436;SDS011;8328;52.206;21.006;2022-09-13T05:20:53;16.00;;;12.67;;
16436;SDS011;8328;52.206;21.006;2022-09-13T05:23:20;15.60;;;12.60;;
16436;SDS011;8328;52.206;21.006;2022-09-13T05:28:20;13.83;;;12.43;;
16436;SDS011;8328;52.206;21.006;2022-09-13T05:33:26;13.70;;;11.97;;
16436;SDS011;8328;52.206;21.006;2022-09-13T05:35:57;16.73;;;12.73;;
16436;SDS011;8328;52.206;21.006;2022-09-13T05:38:23;12.57;;;11.27;;
16436;SDS011;8328;52.206;21.006;2022-09-13T05:40:56;16.40;;;11.40;;
16436;SDS011;8328;52.206;21.006;2022-09-13T05:43:23;15.40;;;12.13;;
16436;SDS011;8328;52.206;21.006;2022-09-13T05:45:58;12.50;;;11.30;;
16436;SDS011;8328;52.206;21.006;2022-09-13T05:48:45;15.23;;;13.57;;
16436;SDS011;8328;52.206;21.006;2022-09-13T05:51:15;16.80;;;14.37;;
16436;SDS011;8328;52.206;21.006;2022-09-13T05:53:43;19.73;;;17.63;;
16436;SDS011;8328;52.206;21.006;2022-09-13T05:56:12;22.00;;;17.13;;
16436;SDS011;8328;52.206;21.006;2022-09-13T05:58:40;12.30;;;11.00;;
16436;SDS011;8328;52.206;21.006;2022-09-13T06:01:08;14.27;;;12.77;;
16436;SDS011;8328;52.206;21.006;2022-09-13T06:03:34;17.93;;;15.07;;
16436;SDS011;8328;52.206;21.006;2022-09-13T06:06:01;17.60;;;15.27;;
16436;SDS011;8328;52.206;21.006;2022-09-13T06:08:29;16.17;;;14.33;;
16436;SDS011;8328;52.206;21.006;2022-09-13T06:10:59;15.93;;;13.63;;
16436;SDS011;8328;52.206;21.006;2022-09-13T06:13:26;20.73;;;17.30;;
16436;SDS011;8328;52.206;21.006;2022-09-13T06:15:54;15.57;;;13.93;;
16436;SDS011;8328;52.206;21.006;2022-09-13T06:18:21;17.00;;;10.97;;
16436;SDS011;8328;52.206;21.006;2022-09-13T06:20:49;14.33;;;12.07;;
16436;SDS011;8328;52.206;21.006;2022-09-13T06:23:15;13.03;;;11.63;;
16436;SDS011;8328;52.206;21.006;2022-09-13T06:25:41;12.93;;;10.70;;
16436;SDS011;8328;52.206;21.006;2022-09-13T06:28:07;12.27;;;10.53;;
16436;SDS011;8328;52.206;21.006;2022-09-13T06:30:34;14.03;;;11.60;;
16436;SDS011;8328;52.206;21.006;2022-09-13T06:33:00;14.33;;;10.27;;
16436;SDS011;8328;52.206;21.006;2022-09-13T06:35:26;14.07;;;11.63;;
16436;SDS011;8328;52.206;21.006;2022-09-13T06:37:55;12.20;;;10.93;;
16436;SDS011;8328;52.206;21.006;2022-09-13T06:40:22;14.03;;;12.00;;
16436;SDS011;8328;52.206;21.006;2022-09-13T06:42:49;12.80;;;11.03;;
16436;SDS011;8328;52.206;21.006;2022-09-13T06:45:15;17.07;;;12.20;;
16436;SDS011;8328;52.206;21.006;2022-09-13T06:47:40;14.50;;;11.13;;
16436;SDS011;8328;52.206;21.006;2022-09-13T06:50:06;15.13;;;12.00;;
16436;SDS011;8328;52.206;21.006;2022-09-13T06:52:33;14.03;;;11.23;;
16436;SDS011;8328;52.206;21.006;2022-09-13T06:54:59;14.17;;;12.67;;
16436;SDS011;8328;52.206;21.006;2022-09-13T06:57:25;14.60;;;11.80;;
16436;SDS011;8328;52.206;21.006;2022-09-13T06:59:54;12.53;;;11.13;;
16436;SDS011;8328;52.206;21.006;2022-09-13T07:02:19;14.60;;;13.20;;
16436;SDS011;8328;52.206;21.006;2022-09-13T07:04:45;13.37;;;11.73;;
16436;SDS011;8328;52.206;21.006;2022-09-13T07:07:11;12.97;;;10.30;;
16436;SDS011;8328;52.206;21.006;2022-09-13T07:09:37;11.93;;;9.73;;
16436;SDS011;8328;52.206;21.006;2022-09-13T07:12:04;10.80;;;9.53;;
16436;SDS011;8328;52.206;21.006;2022-09-13T07:14:30;12.27;;;10.00;;
16436;SDS011;8328;52.206;21.006;2022-09-13T07:16:56;11.23;;;10.03;;
16436;SDS011;8328;52.206;21.006;2022-09-13T07:19:23;12.47;;;10.30;;
16436;SDS011;8328;52.206;21.006;2022-09-13T07:21:50;12.27;;;10.30;;
16436;SDS011;8328;52.206;21.006;2022-09-13T07:24:18;11.17;;;10.07;;
16436;SDS011;8328;52.206;21.006;2022-09-13T07:26:44;11.63;;;9.63;;
16436;SDS011;8328;52.206;21.006;2022-09-13T07:29:13;10.77;;;9.53;;
16436;SDS011;8328;52.206;21.006;2022-09-13T07:31:43;12.53;;;11.23;;
16436;SDS011;8328;52.206;21.006;2022-09-13T07:34:12;12.57;;;10.50;;
16436;SDS011;8328;52.206;21.006;2022-09-13T07:36:39;12.93;;;10.93;;
16436;SDS011;8328;52.206;21.006;2022-09-13T07:39:06;11.80;;;10.10;;
16436;SDS011;8328;52.206;21.006;2022-09-13T07:41:32;8.93;;;8.10;;
16436;SDS011;8328;52.206;21.006;2022-09-13T07:43:59;12.10;;;9.77;;
16436;SDS011;8328;52.206;21.006;2022-09-13T07:46:26;9.87;;;8.67;;
16436;SDS011;8328;52.206;21.006;2022-09-13T07:48:56;9.13;;;7.23;;
16436;SDS011;8328;52.206;21.006;2022-09-13T07:51:24;11.33;;;8.60;;
16436;SDS011;8328;52.206;21.006;2022-09-13T07:53:53;8.43;;;7.53;;
16436;SDS011;8328;52.206;21.006;2022-09-13T07:56:30;7.93;;;7.10;;
16436;SDS011;8328;52.206;21.006;2022-09-13T07:58:58;12.83;;;7.70;;
16436;SDS011;8328;52.206;21.006;2022-09-13T08:01:28;9.13;;;7.03;;
16436;SDS011;8328;52.206;21.006;2022-09-13T08:03:59;7.87;;;6.33;;
16436;SDS011;8328;52.206;21.006;2022-09-13T08:06:27;9.30;;;6.63;;
16436;SDS011;8328;52.206;21.006;2022-09-13T08:08:57;7.27;;;6.33;;
16436;SDS011;8328;52.206;21.006;2022-09-13T08:11:59;7.27;;;5.70;;
16436;SDS011;8328;52.206;21.006;2022-09-13T08:14:19;7.53;;;5.03;;
16436;SDS011;8328;52.206;21.006;2022-09-13T08:16:46;8.40;;;5.47;;
16436;SDS011;8328;52.206;21.006;2022-09-13T08:19:13;7.27;;;5.40;;
16436;SDS011;8328;52.206;21.006;2022-09-13T08:21:41;7.43;;;5.27;;
16436;SDS011;8328;52.206;21.006;2022-09-13T08:24:10;6.80;;;5.87;;
16436;SDS011;8328;52.206;21.006;2022-09-13T08:26:39;6.63;;;5.27;;
16436;SDS011;8328;52.206;21.006;2022-09-13T08:29:05;8.90;;;5.43;;
16436;SDS011;8328;52.206;21.006;2022-09-13T08:31:32;7.63;;;5.23;;
16436;SDS011;8328;52.206;21.006;2022-09-13T08:33:58;8.43;;;5.20;;
16436;SDS011;8328;52.206;21.006;2022-09-13T08:36:25;5.17;;;4.50;;
16436;SDS011;8328;52.206;21.006;2022-09-13T08:38:53;5.07;;;4.10;;
16436;SDS011;8328;52.206;21.006;2022-09-13T08:41:43;6.40;;;4.33;;
16436;SDS011;8328;52.206;21.006;2022-09-13T08:44:33;5.43;;;4.40;;
16436;SDS011;8328;52.206;21.006;2022-09-13T08:49:49;4.80;;;3.90;;
16436;SDS011;8328;52.206;21.006;2022-09-13T08:52:27;5.17;;;4.50;;
16436;SDS011;8328;52.206;21.006;2022-09-13T08:54:57;7.27;;;4.83;;
16436;SDS011;8328;52.206;21.006;2022-09-13T08:57:31;6.37;;;4.43;;
16436;SDS011;8328;52.206;21.006;2022-09-13T09:00:11;4.77;;;3.93;;
16436;SDS011;8328;52.206;21.006;2022-09-13T09:05:28;4.77;;;3.67;;
16436;SDS011;8328;52.206;21.006;2022-09-13T09:08:00;5.07;;;3.40;;
16436;SDS011;8328;52.206;21.006;2022-09-13T09:10:31;4.70;;;3.07;;
16436;SDS011;8328;52.206;21.006;2022-09-13T09:13:04;3.67;;;2.80;;
16436;SDS011;8328;52.206;21.006;2022-09-13T09:15:44;5.17;;;2.90;;
16436;SDS011;8328;52.206;21.006;2022-09-13T09:20:43;4.20;;;2.67;;
16436;SDS011;8328;52.206;21.006;2022-09-13T09:25:43;3.63;;;2.03;;
16436;SDS011;8328;52.206;21.006;2022-09-13T09:28:14;4.40;;;2.50;;
16436;SDS011;8328;52.206;21.006;2022-09-13T09:36:43;3.70;;;1.87;;
16436;SDS011;8328;52.206;21.006;2022-09-13T09:39:19;3.47;;;2.07;;
16436;SDS011;8328;52.206;21.006;2022-09-13T09:41:44;3.10;;;2.37;;
16436;SDS011;8328;52.206;21.006;2022-09-13T09:44:20;3.83;;;2.03;;
16436;SDS011;8328;52.206;21.006;2022-09-13T09:49:58;4.10;;;2.30;;
16436;SDS011;8328;52.206;21.006;2022-09-13T09:55:24;3.37;;;2.00;;
16436;SDS011;8328;52.206;21.006;2022-09-13T09:58:03;4.20;;;2.10;;
16436;SDS011;8328;52.206;21.006;2022-09-13T10:00:33;2.73;;;1.67;;
16436;SDS011;8328;52.206;21.006;2022-09-13T10:03:03;2.43;;;1.77;;
16436;SDS011;8328;52.206;21.006;2022-09-13T10:05:33;2.43;;;1.90;;
16436;SDS011;8328;52.206;21.006;2022-09-13T10:08:05;1.77;;;1.50;;
16436;SDS011;8328;52.206;21.006;2022-09-13T10:13:03;3.97;;;2.67;;
16436;SDS011;8328;52.206;21.006;2022-09-13T10:15:32;2.67;;;1.97;;
16436;SDS011;8328;52.206;21.006;2022-09-13T10:18:12;3.10;;;2.00;;
16436;SDS011;8328;52.206;21.006;2022-09-13T10:20:39;3.10;;;2.00;;
16436;SDS011;8328;52.206;21.006;2022-09-13T10:25:35;1.93;;;1.60;;
16436;SDS011;8328;52.206;21.006;2022-09-13T10:28:03;3.23;;;2.10;;
16436;SDS011;8328;52.206;21.006;2022-09-13T10:33:02;4.00;;;3.43;;
16436;SDS011;8328;52.206;21.006;2022-09-13T10:35:29;2.33;;;1.50;;
16436;SDS011;8328;52.206;21.006;2022-09-13T10:37:55;3.67;;;1.90;;
16436;SDS011;8328;52.206;21.006;2022-09-13T10:40:26;3.27;;;1.77;;
16436;SDS011;8328;52.206;21.006;2022-09-13T10:42:58;2.27;;;1.80;;
16436;SDS011;8328;52.206;21.006;2022-09-13T10:45:27;2.53;;;1.80;;
16436;SDS011;8328;52.206;21.006;2022-09-13T10:48:12;3.03;;;1.70;;
16436;SDS011;8328;52.206;21.006;2022-09-13T10:50:40;3.20;;;2.00;;
16436;SDS011;8328;52.206;21.006;2022-09-13T10:53:30;2.37;;;1.80;;
16436;SDS011;8328;52.206;21.006;2022-09-13T10:55:59;3.60;;;2.30;;
16436;SDS011;8328;52.206;21.006;2022-09-13T10:58:26;3.10;;;1.90;;
16436;SDS011;8328;52.206;21.006;2022-09-13T11:06:40;3.70;;;1.93;;
16436;SDS011;8328;52.206;21.006;2022-09-13T11:14:54;1.80;;;1.70;;
16436;SDS011;8328;52.206;21.006;2022-09-13T11:26:43;3.23;;;2.17;;
16436;SDS011;8328;52.206;21.006;2022-09-13T11:32:23;4.77;;;3.90;;
16436;SDS011;8328;52.206;21.006;2022-09-13T11:38:12;4.43;;;2.40;;
16436;SDS011;8328;52.206;21.006;2022-09-13T11:40:50;4.23;;;1.80;;
16436;SDS011;8328;52.206;21.006;2022-09-13T11:43:29;2.43;;;1.90;;
16436;SDS011;8328;52.206;21.006;2022-09-13T11:56:49;5.00;;;2.30;;
16436;SDS011;8328;52.206;21.006;2022-09-13T12:01:51;2.30;;;2.10;;
16436;SDS011;8328;52.206;21.006;2022-09-13T12:04:32;2.20;;;1.83;;
16436;SDS011;8328;52.206;21.006;2022-09-13T12:07:08;4.30;;;3.73;;
16436;SDS011;8328;52.206;21.006;2022-09-13T12:10:02;3.17;;;2.30;;
16436;SDS011;8328;52.206;21.006;2022-09-13T12:12:31;2.63;;;1.90;;
16436;SDS011;8328;52.206;21.006;2022-09-13T12:15:03;3.07;;;2.10;;
16436;SDS011;8328;52.206;21.006;2022-09-13T12:17:38;4.03;;;2.30;;
16436;SDS011;8328;52.206;21.006;2022-09-13T12:23:21;2.87;;;2.47;;
16436;SDS011;8328;52.206;21.006;2022-09-13T12:25:57;3.33;;;2.60;;
16436;SDS011;8328;52.206;21.006;2022-09-13T12:28:33;5.30;;;2.40;;
16436;SDS011;8328;52.206;21.006;2022-09-13T12:31:13;3.17;;;2.83;;
16436;SDS011;8328;52.206;21.006;2022-09-13T12:33:43;3.50;;;2.70;;
16436;SDS011;8328;52.206;21.006;2022-09-13T12:41:45;3.40;;;2.80;;
16436;SDS011;8328;52.206;21.006;2022-09-13T12:44:20;3.83;;;3.53;;
16436;SDS011;8328;52.206;21.006;2022-09-13T12:55:25;3.37;;;2.70;;
16436;SDS011;8328;52.206;21.006;2022-09-13T13:06:34;4.93;;;2.90;;
16436;SDS011;8328;52.206;21.006;2022-09-13T13:11:46;6.20;;;3.70;;
16436;SDS011;8328;52.206;21.006;2022-09-13T13:16:52;6.43;;;3.57;;
16436;SDS011;8328;52.206;21.006;2022-09-13T13:19:27;5.20;;;4.60;;
16436;SDS011;8328;52.206;21.006;2022-09-13T13:22:14;6.27;;;4.80;;
16436;SDS011;8328;52.206;21.006;2022-09-13T13:25:24;4.63;;;4.10;;
16436;SDS011;8328;52.206;21.006;2022-09-13T13:28:02;4.67;;;3.33;;
16436;SDS011;8328;52.206;21.006;2022-09-13T13:30:38;5.40;;;3.70;;
16436;SDS011;8328;52.206;21.006;2022-09-13T13:33:25;4.40;;;3.30;;
16436;SDS011;8328;52.206;21.006;2022-09-13T13:35:53;3.80;;;3.20;;
16436;SDS011;8328;52.206;21.006;2022-09-13T13:41:35;5.40;;;3.90;;
16436;SDS011;8328;52.206;21.006;2022-09-13T13:46:42;8.50;;;3.83;;
16436;SDS011;8328;52.206;21.006;2022-09-13T13:55:00;4.50;;;3.93;;
16436;SDS011;8328;52.206;21.006;2022-09-13T14:05:32;5.37;;;4.40;;
16436;SDS011;8328;52.206;21.006;2022-09-13T14:11:09;8.00;;;4.73;;
16436;SDS011;8328;52.206;21.006;2022-09-13T14:19:41;5.00;;;3.87;;
16436;SDS011;8328;52.206;21.006;2022-09-13T14:24:43;4.57;;;4.10;;
16436;SDS011;8328;52.206;21.006;2022-09-13T14:27:26;5.70;;;4.00;;
16436;SDS011;8328;52.206;21.006;2022-09-13T14:30:03;4.73;;;4.33;;
16436;SDS011;8328;52.206;21.006;2022-09-13T14:32:42;5.80;;;4.27;;
16436;SDS011;8328;52.206;21.006;2022-09-13T14:37:50;5.13;;;4.20;;
16436;SDS011;8328;52.206;21.006;2022-09-13T14:40:17;5.23;;;4.30;;
16436;SDS011;8328;52.206;21.006;2022-09-13T14:42:51;6.10;;;4.80;;
16436;SDS011;8328;52.206;21.006;2022-09-13T14:45:19;5.43;;;4.50;;
16436;SDS011;8328;52.206;21.006;2022-09-13T14:48:00;5.83;;;3.70;;
16436;SDS011;8328;52.206;21.006;2022-09-13T14:50:31;5.53;;;3.87;;
16436;SDS011;8328;52.206;21.006;2022-09-13T14:53:05;5.10;;;3.90;;
16436;SDS011;8328;52.206;21.006;2022-09-13T14:55:37;6.50;;;5.43;;
16436;SDS011;8328;52.206;21.006;2022-09-13T14:58:07;4.77;;;4.00;;
16436;SDS011;8328;52.206;21.006;2022-09-13T15:03:27;4.50;;;4.10;;
16436;SDS011;8328;52.206;21.006;2022-09-13T15:05:57;6.37;;;4.80;;
16436;SDS011;8328;52.206;21.006;2022-09-13T15:10:56;5.27;;;4.50;;
16436;SDS011;8328;52.206;21.006;2022-09-13T15:13:23;5.23;;;4.23;;
16436;SDS011;8328;52.206;21.006;2022-09-13T15:15:52;4.13;;;3.73;;
16436;SDS011;8328;52.206;21.006;2022-09-13T15:23:21;5.53;;;5.03;;
16436;SDS011;8328;52.206;21.006;2022-09-13T15:25:49;9.30;;;4.97;;
16436;SDS011;8328;52.206;21.006;2022-09-13T15:28:28;6.33;;;4.83;;
16436;SDS011;8328;52.206;21.006;2022-09-13T15:30:57;6.97;;;6.00;;
16436;SDS011;8328;52.206;21.006;2022-09-13T15:33:31;7.73;;;5.37;;
16436;SDS011;8328;52.206;21.006;2022-09-13T15:41:40;5.50;;;4.90;;
16436;SDS011;8328;52.206;21.006;2022-09-13T15:44:19;7.03;;;4.57;;
16436;SDS011;8328;52.206;21.006;2022-09-13T15:46:47;6.43;;;4.93;;
16436;SDS011;8328;52.206;21.006;2022-09-13T15:49:19;7.40;;;4.77;;
16436;SDS011;8328;52.206;21.006;2022-09-13T15:51:54;8.43;;;4.77;;
16436;SDS011;8328;52.206;21.006;2022-09-13T15:54:42;6.77;;;5.07;;
16436;SDS011;8328;52.206;21.006;2022-09-13T15:57:45;8.43;;;5.07;;
16436;SDS011;8328;52.206;21.006;2022-09-13T16:00:05;6.73;;;5.30;;
16436;SDS011;8328;52.206;21.006;2022-09-13T16:02:31;6.30;;;5.70;;
16436;SDS011;8328;52.206;21.006;2022-09-13T16:04:57;9.10;;;5.70;;
16436;SDS011;8328;52.206;21.006;2022-09-13T16:07:24;6.83;;;6.13;;
16436;SDS011;8328;52.206;21.006;2022-09-13T16:09:50;9.60;;;7.63;;
16436;SDS011;8328;52.206;21.006;2022-09-13T16:12:17;7.00;;;5.63;;
16436;SDS011;8328;52.206;21.006;2022-09-13T16:14:43;8.40;;;6.43;;
16436;SDS011;8328;52.206;21.006;2022-09-13T16:17:15;7.13;;;5.90;;
16436;SDS011;8328;52.206;21.006;2022-09-13T16:19:45;6.87;;;6.10;;
16436;SDS011;8328;52.206;21.006;2022-09-13T16:22:11;7.27;;;6.57;;
16436;SDS011;8328;52.206;21.006;2022-09-13T16:24:37;7.47;;;5.80;;
16436;SDS011;8328;52.206;21.006;2022-09-13T16:27:03;8.40;;;7.00;;
16436;SDS011;8328;52.206;21.006;2022-09-13T16:29:29;7.37;;;6.60;;
16436;SDS011;8328;52.206;21.006;2022-09-13T16:31:55;7.47;;;6.13;;
16436;SDS011;8328;52.206;21.006;2022-09-13T16:34:23;7.50;;;6.23;;
16436;SDS011;8328;52.206;21.006;2022-09-13T16:36:50;7.63;;;6.10;;
16436;SDS011;8328;52.206;21.006;2022-09-13T16:39:16;7.40;;;6.70;;
16436;SDS011;8328;52.206;21.006;2022-09-13T16:41:42;7.27;;;6.50;;
16436;SDS011;8328;52.206;21.006;2022-09-13T16:44:08;9.73;;;8.23;;
16436;SDS011;8328;52.206;21.006;2022-09-13T16:46:34;7.60;;;6.67;;
16436;SDS011;8328;52.206;21.006;2022-09-13T16:49:00;7.73;;;6.80;;
16436;SDS011;8328;52.206;21.006;2022-09-13T16:51:27;7.13;;;6.43;;
16436;SDS011;8328;52.206;21.006;2022-09-13T16:53:53;7.27;;;6.07;;
16436;SDS011;8328;52.206;21.006;2022-09-13T16:56:20;7.87;;;6.57;;
16436;SDS011;8328;52.206;21.006;2022-09-13T16:58:48;6.70;;;6.10;;
16436;SDS011;8328;52.206;21.006;2022-09-13T17:01:15;8.13;;;5.83;;
16436;SDS011;8328;52.206;21.006;2022-09-13T17:03:46;6.77;;;5.97;;
16436;SDS011;8328;52.206;21.006;2022-09-13T17:06:14;8.40;;;7.60;;
16436;SDS011;8328;52.206;21.006;2022-09-13T17:08:43;7.17;;;6.43;;
16436;SDS011;8328;52.206;21.006;2022-09-13T17:11:13;7.10;;;5.87;;
16436;SDS011;8328;52.206;21.006;2022-09-13T17:13:40;8.17;;;6.37;;
16436;SDS011;8328;52.206;21.006;2022-09-13T17:16:15;6.80;;;6.10;;
16436;SDS011;8328;52.206;21.006;2022-09-13T17:18:46;7.97;;;6.33;;
16436;SDS011;8328;52.206;21.006;2022-09-13T17:21:11;9.87;;;6.53;;
16436;SDS011;8328;52.206;21.006;2022-09-13T17:23:37;7.63;;;6.53;;
16436;SDS011;8328;52.206;21.006;2022-09-13T17:26:03;8.27;;;7.50;;
16436;SDS011;8328;52.206;21.006;2022-09-13T17:28:30;8.27;;;7.43;;
16436;SDS011;8328;52.206;21.006;2022-09-13T17:30:55;8.30;;;6.63;;
16436;SDS011;8328;52.206;21.006;2022-09-13T17:33:21;10.90;;;7.50;;
16436;SDS011;8328;52.206;21.006;2022-09-13T17:35:56;10.20;;;8.07;;
16436;SDS011;8328;52.206;21.006;2022-09-13T17:38:27;8.63;;;7.00;;
16436;SDS011;8328;52.206;21.006;2022-09-13T17:41:06;7.50;;;6.23;;
16436;SDS011;8328;52.206;21.006;2022-09-13T17:43:34;8.03;;;6.57;;
16436;SDS011;8328;52.206;21.006;2022-09-13T17:46:09;7.43;;;6.50;;
16436;SDS011;8328;52.206;21.006;2022-09-13T17:48:36;7.57;;;6.83;;
16436;SDS011;8328;52.206;21.006;2022-09-13T17:51:04;7.30;;;6.60;;
16436;SDS011;8328;52.206;21.006;2022-09-13T17:53:39;8.37;;;6.10;;
16436;SDS011;8328;52.206;21.006;2022-09-13T17:56:06;7.73;;;6.37;;
16436;SDS011;8328;52.206;21.006;2022-09-13T17:58:32;7.13;;;6.43;;
16436;SDS011;8328;52.206;21.006;2022-09-13T18:01:03;8.03;;;6.17;;
16436;SDS011;8328;52.206;21.006;2022-09-13T18:03:31;7.77;;;6.50;;
16436;SDS011;8328;52.206;21.006;2022-09-13T18:06:02;9.27;;;7.80;;
16436;SDS011;8328;52.206;21.006;2022-09-13T18:08:30;8.00;;;7.20;;
16436;SDS011;8328;52.206;21.006;2022-09-13T18:11:16;8.30;;;6.73;;
16436;SDS011;8328;52.206;21.006;2022-09-13T18:13:43;9.60;;;7.87;;
16436;SDS011;8328;52.206;21.006;2022-09-13T18:16:14;10.73;;;9.57;;
16436;SDS011;8328;52.206;21.006;2022-09-13T18:18:45;7.43;;;6.63;;
16436;SDS011;8328;52.206;21.006;2022-09-13T18:21:12;9.03;;;7.17;;
16436;SDS011;8328;52.206;21.006;2022-09-13T18:23:38;7.27;;;6.37;;
16436;SDS011;8328;52.206;21.006;2022-09-13T18:26:11;5.97;;;5.43;;
16436;SDS011;8328;52.206;21.006;2022-09-13T18:28:41;7.30;;;5.80;;
16436;SDS011;8328;52.206;21.006;2022-09-13T18:31:08;7.10;;;6.40;;
16436;SDS011;8328;52.206;21.006;2022-09-13T18:33:41;7.47;;;6.50;;
16436;SDS011;8328;52.206;21.006;2022-09-13T18:36:09;7.70;;;6.07;;
16436;SDS011;8328;52.206;21.006;2022-09-13T18:38:38;8.07;;;5.83;;
16436;SDS011;8328;52.206;21.006;2022-09-13T18:41:08;9.23;;;7.77;;
16436;SDS011;8328;52.206;21.006;2022-09-13T18:43:36;7.10;;;6.30;;
16436;SDS011;8328;52.206;21.006;2022-09-13T18:46:04;6.30;;;5.60;;
16436;SDS011;8328;52.206;21.006;2022-09-13T18:48:33;6.77;;;5.97;;